Time;durP1;ratioP1;P1;durP2;ratioP2;P2;SDS_P1;SDS_P2;PMS_P1;PMS_P2;Temp;Humidity;BMP_temperature;BMP_pressure;BME280_temperature;BME280_humidity;BME280_pressure;Samples;Min_cycle;Max_cycle;Signal;HPM_P1;HPM_P2
2023/12/06 00:00:05;;;;;;;18.85;13.02;;;;;;;;;;5056416;28;41135;-73
2023/12/06 00:02:34;;;;;;;17.55;12.98;;;;;;;;;;5069270;28;41421;-72
2023/12/06 00:05:02;;;;;;;17.50;13.18;;;;;;;;;;5060472;28;40995;-73
2023/12/06 00:07:30;;;;;;;18.83;14.18;;;;;;;;;;5066211;28;42051;-73
2023/12/06 00:10:00;;;;;;;17.98;13.68;;;;;;;;;;5068584;28;40341;-73
2023/12/06 00:12:29;;;;;;;16.65;12.80;;;;;;;;;;5067086;28;41701;-72
2023/12/06 00:14:57;;;;;;;16.52;13.30;;;;;;;;;;5068439;28;43158;-72
2023/12/06 00:17:24;;;;;;;16.58;12.48;;;;;;;;;;5066769;28;40428;-73
2023/12/06 00:19:52;;;;;;;17.23;13.05;;;;;;;;;;5065309;28;42569;-73
2023/12/06 00:22:20;;;;;;;16.38;12.75;;;;;;;;;;5070037;28;42732;-73
2023/12/06 00:24:48;;;;;;;17.13;13.05;;;;;;;;;;5068133;28;40363;-73
2023/12/06 00:27:18;;;;;;;16.92;13.18;;;;;;;;;;5070777;28;41643;-73
2023/12/06 00:29:46;;;;;;;15.82;12.65;;;;;;;;;;5069623;28;40202;-73
2023/12/06 00:32:14;;;;;;;16.63;13.52;;;;;;;;;;5058604;28;42305;-73
2023/12/06 00:34:42;;;;;;;16.15;12.73;;;;;;;;;;5066903;28;42225;-73
2023/12/06 00:37:10;;;;;;;16.90;13.02;;;;;;;;;;5069287;28;40667;-73
2023/12/06 00:39:38;;;;;;;16.80;12.15;;;;;;;;;;5050487;28;40472;-73
2023/12/06 00:42:06;;;;;;;17.40;13.13;;;;;;;;;;5069696;28;43126;-73
2023/12/06 00:44:35;;;;;;;18.60;13.40;;;;;;;;;;5063660;28;41217;-73
2023/12/06 00:47:03;;;;;;;15.30;12.40;;;;;;;;;;5069397;28;41906;-73
2023/12/06 00:49:31;;;;;;;16.35;12.68;;;;;;;;;;5069470;28;42009;-73
2023/12/06 00:51:59;;;;;;;17.25;12.93;;;;;;;;;;5068935;28;40478;-73
2023/12/06 00:54:27;;;;;;;17.02;13.13;;;;;;;;;;5069711;28;42040;-73
2023/12/06 00:56:55;;;;;;;15.23;12.10;;;;;;;;;;5069329;28;40517;-73
2023/12/06 00:59:23;;;;;;;14.95;12.38;;;;;;;;;;5068742;28;42093;-73
2023/12/06 01:01:53;;;;;;;15.95;12.20;;;;;;;;;;5063494;28;41033;-73
2023/12/06 01:04:21;;;;;;;15.93;12.15;;;;;;;;;;5061986;28;41448;-72
2023/12/06 01:06:49;;;;;;;13.93;11.07;;;;;;;;;;5059837;28;42409;-73
2023/12/06 01:09:17;;;;;;;15.43;12.75;;;;;;;;;;5069198;28;41645;-72
2023/12/06 01:11:45;;;;;;;16.20;12.93;;;;;;;;;;5051246;28;40184;-73
2023/12/06 01:14:13;;;;;;;14.25;11.80;;;;;;;;;;5068255;28;41550;-73
2023/12/06 01:16:41;;;;;;;14.07;11.35;;;;;;;;;;5069008;28;41309;-73
2023/12/06 01:19:10;;;;;;;14.32;10.88;;;;;;;;;;5068309;28;41807;-73
2023/12/06 01:21:38;;;;;;;14.43;12.27;;;;;;;;;;5069592;28;42756;-73
2023/12/06 01:24:06;;;;;;;14.60;12.07;;;;;;;;;;5068791;28;41340;-73
2023/12/06 01:26:34;;;;;;;13.38;11.32;;;;;;;;;;5050110;28;39912;-73
2023/12/06 01:29:04;;;;;;;12.82;10.25;;;;;;;;;;5068679;28;42796;-73
2023/12/06 01:31:33;;;;;;;15.48;11.98;;;;;;;;;;5058030;28;40112;-73
2023/12/06 01:34:02;;;;;;;13.10;11.15;;;;;;;;;;5065687;28;42723;-73
2023/12/06 01:36:32;;;;;;;14.15;10.52;;;;;;;;;;5069109;28;39989;-73
2023/12/06 01:38:59;;;;;;;14.07;10.80;;;;;;;;;;5063936;28;41715;-73
2023/12/06 01:41:27;;;;;;;14.88;10.95;;;;;;;;;;5068655;28;42540;-73
2023/12/06 01:43:55;;;;;;;12.82;10.88;;;;;;;;;;5068836;28;41347;-73
2023/12/06 01:46:24;;;;;;;13.73;10.15;;;;;;;;;;5069393;28;41188;-73
2023/12/06 01:48:52;;;;;;;13.20;10.50;;;;;;;;;;5054784;28;42052;-73
2023/12/06 01:51:20;;;;;;;13.63;9.95;;;;;;;;;;5055039;28;40107;-75
2023/12/06 01:53:49;;;;;;;12.98;10.15;;;;;;;;;;5047812;28;41684;-75
2023/12/06 01:56:17;;;;;;;11.35;9.57;;;;;;;;;;5054005;28;34673;-75
2023/12/06 01:58:45;;;;;;;13.85;10.77;;;;;;;;;;5063714;28;42494;-75
2023/12/06 02:01:14;;;;;;;12.18;10.18;;;;;;;;;;5067970;28;43283;-76
2023/12/06 02:03:42;;;;;;;14.38;10.60;;;;;;;;;;5068040;28;39947;-75
2023/12/06 02:06:10;;;;;;;12.48;10.25;;;;;;;;;;5068736;28;41527;-75
2023/12/06 02:08:38;;;;;;;12.20;9.82;;;;;;;;;;5066491;28;42289;-75
2023/12/06 02:11:07;;;;;;;12.50;9.85;;;;;;;;;;5062197;28;41145;-75
2023/12/06 02:13:35;;;;;;;13.45;10.25;;;;;;;;;;5068681;28;41921;-75
2023/12/06 02:16:04;;;;;;;12.00;10.55;;;;;;;;;;5068170;28;42397;-75
2023/12/06 02:18:32;;;;;;;13.13;10.15;;;;;;;;;;5068770;28;42182;-75
2023/12/06 02:21:00;;;;;;;11.75;9.73;;;;;;;;;;5068471;28;42283;-75
2023/12/06 02:23:30;;;;;;;10.13;9.02;;;;;;;;;;5068340;28;40533;-75
2023/12/06 02:25:59;;;;;;;10.88;9.23;;;;;;;;;;5054223;28;41426;-75
2023/12/06 02:28:27;;;;;;;11.40;9.52;;;;;;;;;;5068480;28;41963;-75
2023/12/06 02:30:56;;;;;;;12.27;10.35;;;;;;;;;;5067160;28;40801;-75
2023/12/06 02:33:24;;;;;;;12.48;10.00;;;;;;;;;;5068533;28;41812;-75
2023/12/06 02:35:54;;;;;;;10.27;8.77;;;;;;;;;;5054377;28;43210;-76
2023/12/06 02:38:22;;;;;;;11.10;8.93;;;;;;;;;;5061234;28;40090;-75
2023/12/06 02:40:50;;;;;;;12.00;9.73;;;;;;;;;;5068508;28;41995;-75
2023/12/06 02:43:19;;;;;;;10.68;9.10;;;;;;;;;;5063266;28;40422;-75
2023/12/06 02:45:47;;;;;;;12.02;9.32;;;;;;;;;;5058545;28;41572;-75
2023/12/06 02:48:16;;;;;;;11.65;9.85;;;;;;;;;;5067648;28;42314;-75
2023/12/06 02:50:44;;;;;;;11.65;9.13;;;;;;;;;;5067578;28;40437;-75
2023/12/06 02:53:12;;;;;;;11.77;9.18;;;;;;;;;;5066827;28;41411;-75
2023/12/06 02:55:40;;;;;;;11.02;9.07;;;;;;;;;;5068252;28;42104;-75
2023/12/06 02:58:08;;;;;;;11.82;9.00;;;;;;;;;;5064812;28;41823;-75
2023/12/06 03:00:38;;;;;;;12.23;9.30;;;;;;;;;;5037508;28;40226;-75
2023/12/06 03:03:07;;;;;;;10.20;9.07;;;;;;;;;;5067372;28;39518;-75
2023/12/06 03:05:35;;;;;;;10.65;9.07;;;;;;;;;;5054339;28;42320;-75
2023/12/06 03:08:03;;;;;;;11.82;9.23;;;;;;;;;;5067808;28;42871;-75
2023/12/06 03:10:31;;;;;;;11.35;8.98;;;;;;;;;;5056024;28;40847;-76
2023/12/06 03:13:00;;;;;;;11.45;8.85;;;;;;;;;;5066264;28;42279;-75
2023/12/06 03:15:28;;;;;;;10.13;8.70;;;;;;;;;;5054962;28;42874;-75
2023/12/06 03:17:58;;;;;;;10.77;9.20;;;;;;;;;;5067666;28;41123;-75
2023/12/06 03:20:26;;;;;;;9.93;8.63;;;;;;;;;;5052984;28;41727;-75
2023/12/06 03:22:54;;;;;;;10.15;8.50;;;;;;;;;;5066117;28;41490;-75
2023/12/06 03:25:22;;;;;;;10.60;8.63;;;;;;;;;;5067104;28;41643;-75
2023/12/06 03:27:51;;;;;;;9.95;8.77;;;;;;;;;;5067084;28;42734;-75
2023/12/06 03:30:19;;;;;;;10.32;8.30;;;;;;;;;;5067673;28;39988;-75
2023/12/06 03:33:02;;;;;;;10.63;8.82;;;;;;;;;;5064101;28;41781;-75
2023/12/06 03:35:30;;;;;;;10.93;8.73;;;;;;;;;;5066903;28;42089;-75
2023/12/06 03:37:58;;;;;;;10.82;8.80;;;;;;;;;;5067876;28;41448;-75
2023/12/06 03:40:26;;;;;;;10.13;8.55;;;;;;;;;;5066657;28;41611;-75
2023/12/06 03:42:54;;;;;;;11.35;9.20;;;;;;;;;;5066434;28;42168;-75
2023/12/06 03:45:22;;;;;;;11.18;8.38;;;;;;;;;;5066206;28;41895;-75
2023/12/06 03:47:50;;;;;;;11.23;9.05;;;;;;;;;;5053721;28;43113;-75
2023/12/06 03:50:20;;;;;;;10.43;8.43;;;;;;;;;;5067355;28;40188;-76
2023/12/06 03:52:48;;;;;;;11.00;8.70;;;;;;;;;;5053381;28;42339;-75
2023/12/06 03:55:16;;;;;;;8.80;7.90;;;;;;;;;;5066190;28;42006;-75
2023/12/06 03:57:44;;;;;;;10.73;8.45;;;;;;;;;;5066177;28;39835;-75
2023/12/06 04:00:13;;;;;;;9.77;8.13;;;;;;;;;;5046284;28;40028;-75
2023/12/06 04:02:42;;;;;;;10.05;7.70;;;;;;;;;;5057382;28;41893;-76
2023/12/06 04:05:10;;;;;;;10.18;8.05;;;;;;;;;;5066942;28;41099;-75
2023/12/06 04:07:40;;;;;;;10.38;8.05;;;;;;;;;;5058397;28;41811;-75
2023/12/06 04:10:08;;;;;;;10.55;8.57;;;;;;;;;;5060344;28;41137;-75
2023/12/06 04:12:36;;;;;;;8.20;7.03;;;;;;;;;;5067060;28;41542;-75
2023/12/06 04:15:05;;;;;;;9.90;7.97;;;;;;;;;;5065577;28;42073;-75
2023/12/06 04:17:34;;;;;;;9.52;7.90;;;;;;;;;;5066700;28;40905;-75
2023/12/06 04:20:02;;;;;;;11.25;8.55;;;;;;;;;;5067257;28;41397;-75
2023/12/06 04:22:31;;;;;;;9.45;7.80;;;;;;;;;;5069106;28;42720;-75
2023/12/06 04:25:00;;;;;;;9.45;8.10;;;;;;;;;;5069546;28;40404;-75
2023/12/06 04:27:27;;;;;;;7.65;6.78;;;;;;;;;;5064051;28;42013;-74
2023/12/06 04:29:56;;;;;;;10.70;8.32;;;;;;;;;;5069337;28;40437;-75
2023/12/06 04:32:24;;;;;;;9.25;7.40;;;;;;;;;;5069597;28;41661;-75
2023/12/06 04:34:53;;;;;;;9.00;7.82;;;;;;;;;;5069688;28;41850;-75
2023/12/06 04:37:21;;;;;;;10.70;8.05;;;;;;;;;;5069076;28;40511;-75
2023/12/06 04:39:49;;;;;;;8.38;6.90;;;;;;;;;;5069671;28;41398;-75
2023/12/06 04:42:18;;;;;;;9.25;7.20;;;;;;;;;;5069486;28;42972;-76
2023/12/06 04:44:46;;;;;;;8.95;7.15;;;;;;;;;;5069221;28;40930;-75
2023/12/06 04:47:14;;;;;;;8.63;6.95;;;;;;;;;;5069408;28;42474;-75
2023/12/06 04:49:42;;;;;;;8.13;7.00;;;;;;;;;;5069712;28;42701;-75
2023/12/06 04:52:10;;;;;;;8.70;6.70;;;;;;;;;;5069251;28;41091;-75
2023/12/06 04:54:38;;;;;;;9.23;7.20;;;;;;;;;;5069263;28;43173;-75
2023/12/06 04:57:06;;;;;;;7.50;6.28;;;;;;;;;;5050475;28;39763;-75
2023/12/06 04:59:35;;;;;;;9.52;7.82;;;;;;;;;;5056698;28;41153;-75
2023/12/06 05:02:04;;;;;;;7.65;6.78;;;;;;;;;;5069434;28;41622;-75
2023/12/06 05:04:32;;;;;;;8.20;7.05;;;;;;;;;;5068539;28;40521;-75
2023/12/06 05:07:00;;;;;;;8.50;7.30;;;;;;;;;;5067990;28;41368;-75
2023/12/06 05:09:28;;;;;;;8.82;7.07;;;;;;;;;;5067950;28;42599;-75
2023/12/06 05:11:56;;;;;;;7.20;6.45;;;;;;;;;;5055334;28;40079;-75
2023/12/06 05:14:24;;;;;;;9.55;7.18;;;;;;;;;;5069423;28;43517;-76
2023/12/06 05:16:54;;;;;;;7.97;6.20;;;;;;;;;;5068611;28;40174;-76
2023/12/06 05:19:22;;;;;;;8.35;6.40;;;;;;;;;;5068694;28;41572;-75
2023/12/06 05:21:53;;;;;;;7.40;6.57;;;;;;;;;;5064880;28;43619;-75
2023/12/06 05:24:21;;;;;;;8.23;7.30;;;;;;;;;;5056231;28;41205;-75
2023/12/06 05:26:49;;;;;;;9.00;7.10;;;;;;;;;;5068048;28;42193;-75
2023/12/06 05:29:17;;;;;;;7.15;6.45;;;;;;;;;;5069215;28;43053;-75
2023/12/06 05:31:45;;;;;;;9.13;6.72;;;;;;;;;;5067560;28;41128;-77
2023/12/06 05:34:15;;;;;;;9.27;6.70;;;;;;;;;;5068216;28;42072;-75
2023/12/06 05:36:43;;;;;;;7.43;6.45;;;;;;;;;;5064500;28;40201;-75
2023/12/06 05:39:11;;;;;;;7.68;6.30;;;;;;;;;;5068567;28;42112;-75
2023/12/06 05:41:40;;;;;;;6.95;6.00;;;;;;;;;;5068371;28;42041;-75
2023/12/06 05:44:08;;;;;;;7.13;5.80;;;;;;;;;;5068588;28;40826;-75
2023/12/06 05:46:36;;;;;;;7.65;6.43;;;;;;;;;;5068113;28;41932;-75
2023/12/06 05:49:04;;;;;;;7.68;6.30;;;;;;;;;;5068560;28;42390;-75
2023/12/06 05:51:34;;;;;;;8.10;6.88;;;;;;;;;;5069192;28;39867;-75
2023/12/06 05:54:03;;;;;;;7.35;6.35;;;;;;;;;;5068206;28;41812;-75
2023/12/06 05:56:31;;;;;;;6.95;5.65;;;;;;;;;;5069300;28;41755;-75
2023/12/06 05:58:59;;;;;;;7.88;6.07;;;;;;;;;;5059551;28;41538;-75
2023/12/06 06:01:27;;;;;;;7.03;6.00;;;;;;;;;;5061903;28;40620;-75
2023/12/06 06:03:56;;;;;;;7.75;6.45;;;;;;;;;;5068422;28;40522;-75
2023/12/06 06:06:25;;;;;;;7.22;5.70;;;;;;;;;;5068309;28;42735;-75
2023/12/06 06:08:54;;;;;;;7.60;6.13;;;;;;;;;;5053465;28;42353;-75
2023/12/06 06:11:22;;;;;;;8.75;6.57;;;;;;;;;;5068071;28;40309;-75
2023/12/06 06:13:50;;;;;;;7.57;6.20;;;;;;;;;;5057022;28;41369;-75
2023/12/06 06:16:18;;;;;;;6.55;5.78;;;;;;;;;;5067919;28;41507;-75
2023/12/06 06:18:46;;;;;;;7.65;6.20;;;;;;;;;;5054158;28;41499;-76
2023/12/06 06:21:14;;;;;;;6.47;5.75;;;;;;;;;;5068261;28;42734;-75
2023/12/06 06:23:43;;;;;;;6.80;5.72;;;;;;;;;;5065300;28;40914;-75
2023/12/06 06:26:13;;;;;;;7.30;6.05;;;;;;;;;;5058521;28;41891;-75
2023/12/06 06:28:44;;;;;;;7.90;6.00;;;;;;;;;;5066181;28;41842;-75
2023/12/06 06:31:12;;;;;;;6.50;5.53;;;;;;;;;;5067725;28;40165;-76
2023/12/06 06:33:40;;;;;;;6.47;5.38;;;;;;;;;;5048495;28;40540;-75
2023/12/06 06:36:08;;;;;;;7.88;5.95;;;;;;;;;;5047683;28;41064;-75
2023/12/06 06:38:37;;;;;;;6.28;5.15;;;;;;;;;;5068229;28;41223;-75
2023/12/06 06:41:06;;;;;;;6.65;5.43;;;;;;;;;;5067071;28;41888;-76
2023/12/06 06:43:36;;;;;;;6.45;5.30;;;;;;;;;;5067194;28;41490;-76
2023/12/06 06:46:05;;;;;;;5.82;4.80;;;;;;;;;;5066935;28;43105;-76
2023/12/06 06:48:33;;;;;;;5.95;5.18;;;;;;;;;;5068448;28;42092;-75
2023/12/06 06:51:01;;;;;;;6.43;5.32;;;;;;;;;;5067507;28;41513;-75
2023/12/06 06:53:29;;;;;;;7.65;5.35;;;;;;;;;;5067906;28;41531;-75
2023/12/06 06:55:56;;;;;;;6.78;5.25;;;;;;;;;;5066424;28;41857;-75
2023/12/06 06:58:24;;;;;;;6.00;4.97;;;;;;;;;;5060524;28;40217;-75
2023/12/06 07:00:54;;;;;;;5.22;4.72;;;;;;;;;;5057915;28;41643;-75
2023/12/06 07:03:22;;;;;;;7.57;5.50;;;;;;;;;;5053176;28;42217;-76
2023/12/06 07:05:50;;;;;;;5.38;4.43;;;;;;;;;;5066589;28;41508;-76
2023/12/06 07:08:18;;;;;;;5.82;5.00;;;;;;;;;;5065204;28;41773;-75
2023/12/06 07:10:48;;;;;;;7.53;4.95;;;;;;;;;;5057502;28;41130;-74
2023/12/06 07:13:16;;;;;;;8.40;4.55;;;;;;;;;;5064181;28;42062;-74
2023/12/06 07:15:46;;;;;;;5.90;4.90;;;;;;;;;;5058723;28;42035;-76
2023/12/06 07:18:15;;;;;;;5.57;4.55;;;;;;;;;;5058647;28;40258;-76
2023/12/06 07:20:44;;;;;;;5.53;4.32;;;;;;;;;;5055624;28;41736;-75
2023/12/06 07:23:16;;;;;;;5.30;4.40;;;;;;;;;;5063393;28;42200;-75
2023/12/06 07:25:45;;;;;;;5.07;4.22;;;;;;;;;;5054132;28;41543;-75
2023/12/06 07:28:13;;;;;;;5.05;4.53;;;;;;;;;;5067490;28;43172;-75
2023/12/06 07:30:41;;;;;;;5.38;4.50;;;;;;;;;;5067267;28;40185;-76
2023/12/06 07:33:09;;;;;;;6.20;4.78;;;;;;;;;;5066582;28;41673;-75
2023/12/06 07:35:40;;;;;;;5.13;4.63;;;;;;;;;;5066887;28;41819;-75
2023/12/06 07:38:10;;;;;;;5.50;4.40;;;;;;;;;;5058701;28;40959;-75
2023/12/06 07:40:38;;;;;;;4.85;4.35;;;;;;;;;;5066225;28;42537;-76
2023/12/06 07:43:06;;;;;;;7.50;4.93;;;;;;;;;;5047744;28;40866;-74
2023/12/06 07:45:34;;;;;;;7.00;4.68;;;;;;;;;;5067595;28;40338;-74
2023/12/06 07:48:03;;;;;;;8.98;5.20;;;;;;;;;;5047039;28;40648;-73
2023/12/06 07:50:31;;;;;;;8.27;5.13;;;;;;;;;;5066541;28;40471;-73
2023/12/06 07:53:00;;;;;;;7.72;4.57;;;;;;;;;;5060950;28;41284;-74
2023/12/06 07:55:28;;;;;;;4.75;3.85;;;;;;;;;;5062848;28;42667;-73
2023/12/06 07:57:56;;;;;;;5.38;4.03;;;;;;;;;;5070655;28;40198;-73
2023/12/06 08:00:25;;;;;;;6.72;4.80;;;;;;;;;;5063793;28;41217;-73
2023/12/06 08:02:53;;;;;;;6.90;4.60;;;;;;;;;;5062570;28;41505;-73
2023/12/06 08:05:21;;;;;;;5.30;4.50;;;;;;;;;;5066888;28;38779;-73
2023/12/06 08:07:49;;;;;;;4.45;3.65;;;;;;;;;;5068893;28;41458;-73
2023/12/06 08:10:22;;;;;;;5.93;4.50;;;;;;;;;;5069022;28;40238;-74
2023/12/06 08:12:53;;;;;;;4.80;3.80;;;;;;;;;;5066430;28;41264;-74
2023/12/06 08:15:22;;;;;;;6.45;4.43;;;;;;;;;;5065781;28;41683;-75
2023/12/06 08:17:50;;;;;;;4.82;3.85;;;;;;;;;;5069098;28;42373;-73
2023/12/06 08:20:19;;;;;;;6.20;4.60;;;;;;;;;;5066058;28;42133;-74
2023/12/06 08:22:47;;;;;;;5.70;4.22;;;;;;;;;;5069500;28;42003;-74
2023/12/06 08:25:15;;;;;;;5.03;4.00;;;;;;;;;;5069698;28;40442;-74
2023/12/06 08:27:44;;;;;;;5.13;4.47;;;;;;;;;;5070216;28;42996;-73
2023/12/06 08:30:13;;;;;;;5.15;3.60;;;;;;;;;;5068150;28;40142;-74
2023/12/06 08:32:41;;;;;;;5.03;3.83;;;;;;;;;;5069061;28;41701;-74
2023/12/06 08:35:09;;;;;;;6.43;3.70;;;;;;;;;;5068638;28;42307;-74
2023/12/06 08:37:37;;;;;;;6.65;4.80;;;;;;;;;;5069897;28;40757;-74
2023/12/06 08:40:08;;;;;;;5.32;4.07;;;;;;;;;;5069477;28;41866;-74
2023/12/06 08:42:36;;;;;;;5.32;4.22;;;;;;;;;;5066634;28;42009;-74
2023/12/06 08:45:06;;;;;;;4.93;3.88;;;;;;;;;;5066699;28;39620;-75
2023/12/06 08:47:34;;;;;;;7.03;5.63;;;;;;;;;;5069685;28;41523;-74
2023/12/06 08:50:04;;;;;;;5.95;4.85;;;;;;;;;;5066271;28;41496;-74
2023/12/06 08:52:34;;;;;;;6.38;4.93;;;;;;;;;;5067102;28;41660;-74
2023/12/06 08:55:03;;;;;;;9.48;6.80;;;;;;;;;;5067708;28;42781;-74
2023/12/06 08:57:31;;;;;;;9.52;5.97;;;;;;;;;;5069187;28;40351;-73
2023/12/06 08:59:59;;;;;;;7.85;6.28;;;;;;;;;;5055337;28;41666;-73
2023/12/06 09:02:29;;;;;;;5.90;4.75;;;;;;;;;;5067927;28;41404;-73
2023/12/06 09:04:57;;;;;;;6.30;5.45;;;;;;;;;;5068030;28;40413;-75
2023/12/06 09:07:25;;;;;;;8.55;5.60;;;;;;;;;;5068355;28;42595;-70
2023/12/06 09:09:54;;;;;;;12.68;6.10;;;;;;;;;;5069456;28;42215;-75
2023/12/06 09:12:22;;;;;;;7.03;6.32;;;;;;;;;;5068939;28;40742;-71
2023/12/06 09:14:50;;;;;;;7.57;6.53;;;;;;;;;;5069992;28;42040;-72
2023/12/06 09:17:18;;;;;;;6.35;4.65;;;;;;;;;;5069611;28;40146;-73
2023/12/06 09:19:48;;;;;;;6.78;5.30;;;;;;;;;;5052353;28;40132;-72
2023/12/06 09:22:17;;;;;;;6.65;5.78;;;;;;;;;;5069666;28;42575;-73
2023/12/06 09:24:47;;;;;;;6.45;5.65;;;;;;;;;;5062632;28;40930;-72
2023/12/06 09:27:16;;;;;;;7.32;6.10;;;;;;;;;;5068993;28;43245;-73
2023/12/06 09:29:45;;;;;;;10.05;6.40;;;;;;;;;;5069309;28;42051;-71
2023/12/06 09:32:13;;;;;;;6.93;5.40;;;;;;;;;;5070770;28;40320;-70
2023/12/06 09:34:42;;;;;;;9.77;6.57;;;;;;;;;;5061508;28;41319;-71
2023/12/06 09:37:16;;;;;;;10.07;6.60;;;;;;;;;;5065711;28;40272;-75
2023/12/06 09:39:44;;;;;;;7.97;7.10;;;;;;;;;;5067029;28;41162;-74
2023/12/06 09:42:12;;;;;;;13.52;5.82;;;;;;;;;;5068507;28;41802;-74
2023/12/06 09:44:41;;;;;;;9.50;7.20;;;;;;;;;;5068208;28;40761;-74
2023/12/06 09:47:11;;;;;;;7.45;6.15;;;;;;;;;;5051022;28;39962;-75
2023/12/06 09:49:39;;;;;;;8.07;6.72;;;;;;;;;;5059136;28;41691;-78
2023/12/06 09:52:08;;;;;;;9.00;6.55;;;;;;;;;;5064605;28;41274;-73
2023/12/06 09:54:40;;;;;;;7.30;5.70;;;;;;;;;;5067749;28;41009;-74
2023/12/06 09:57:09;;;;;;;7.25;6.20;;;;;;;;;;5069462;28;41426;-75
2023/12/06 09:59:37;;;;;;;6.93;5.53;;;;;;;;;;5067796;28;41692;-76
2023/12/06 10:02:05;;;;;;;6.32;5.20;;;;;;;;;;5068523;28;42137;-77
2023/12/06 10:04:34;;;;;;;8.70;6.82;;;;;;;;;;5061109;28;40255;-75
2023/12/06 10:07:02;;;;;;;9.40;6.25;;;;;;;;;;5067623;28;41779;-75
2023/12/06 10:09:30;;;;;;;6.80;5.72;;;;;;;;;;5068793;28;42491;-74
2023/12/06 10:12:10;;;;;;;7.18;5.75;;;;;;;;;;5067608;28;40853;-75
2023/12/06 10:14:37;;;;;;;7.57;5.63;;;;;;;;;;5066699;28;41707;-74
2023/12/06 10:17:06;;;;;;;7.38;5.25;;;;;;;;;;5063801;28;42730;-73
2023/12/06 10:19:33;;;;;;;6.30;5.00;;;;;;;;;;5062219;28;40588;-73
2023/12/06 10:22:01;;;;;;;7.82;5.68;;;;;;;;;;5067760;28;41637;-72
2023/12/06 10:24:29;;;;;;;10.43;5.82;;;;;;;;;;5067459;28;39976;-72
2023/12/06 10:27:00;;;;;;;8.55;5.38;;;;;;;;;;5068191;28;41197;-72
2023/12/06 10:29:30;;;;;;;6.22;4.57;;;;;;;;;;5065362;28;42213;-72
2023/12/06 10:31:58;;;;;;;7.03;5.55;;;;;;;;;;5061697;28;40810;-73
2023/12/06 10:34:27;;;;;;;12.35;4.45;;;;;;;;;;5060199;28;41165;-72
2023/12/06 10:36:56;;;;;;;7.30;5.80;;;;;;;;;;5065292;28;42062;-71
2023/12/06 10:39:24;;;;;;;7.75;5.55;;;;;;;;;;5063438;28;40360;-72
2023/12/06 10:41:53;;;;;;;11.27;5.65;;;;;;;;;;5063438;28;42223;-72
2023/12/06 10:44:21;;;;;;;6.15;5.15;;;;;;;;;;5067634;28;40433;-72
2023/12/06 10:46:50;;;;;;;7.40;5.38;;;;;;;;;;5066150;28;42611;-71
2023/12/06 10:49:31;;;;;;;7.00;5.00;;;;;;;;;;5065371;28;43155;-72
2023/12/06 10:51:59;;;;;;;6.85;4.80;;;;;;;;;;5065154;28;41004;-72
2023/12/06 10:54:27;;;;;;;8.80;5.25;;;;;;;;;;5053828;28;42057;-72
2023/12/06 10:56:57;;;;;;;9.35;5.05;;;;;;;;;;5052685;28;42022;-72
2023/12/06 10:59:26;;;;;;;10.90;5.75;;;;;;;;;;5055883;28;20254;-73
2023/12/06 11:01:56;;;;;;;6.80;4.65;;;;;;;;;;5056527;28;41810;-74
2023/12/06 11:04:24;;;;;;;8.20;5.65;;;;;;;;;;5053736;28;41437;-74
2023/12/06 11:06:58;;;;;;;7.72;5.60;;;;;;;;;;5057860;28;43061;-74
2023/12/06 11:09:29;;;;;;;7.72;5.18;;;;;;;;;;5058290;28;43311;-73
2023/12/06 11:12:00;;;;;;;7.45;4.68;;;;;;;;;;5057470;28;40939;-73
2023/12/06 11:14:35;;;;;;;4.82;4.30;;;;;;;;;;5060333;28;40796;-73
2023/12/06 11:17:07;;;;;;;7.47;5.05;;;;;;;;;;5047582;28;41836;-73
2023/12/06 11:19:35;;;;;;;7.60;5.55;;;;;;;;;;5056056;28;39975;-74
2023/12/06 11:22:03;;;;;;;6.65;5.38;;;;;;;;;;5051202;28;42696;-73
2023/12/06 11:24:33;;;;;;;6.50;4.95;;;;;;;;;;5061095;28;42446;-72
2023/12/06 11:27:01;;;;;;;6.53;5.03;;;;;;;;;;5049895;28;41443;-73
2023/12/06 11:29:31;;;;;;;6.30;4.90;;;;;;;;;;5062088;28;42025;-73
2023/12/06 11:32:00;;;;;;;8.63;4.38;;;;;;;;;;5062994;28;40929;-73
2023/12/06 11:34:34;;;;;;;5.90;4.20;;;;;;;;;;5054783;28;41538;-73
2023/12/06 11:37:06;;;;;;;6.00;5.28;;;;;;;;;;5055266;28;42995;-73
2023/12/06 11:39:36;;;;;;;7.00;4.97;;;;;;;;;;5055388;28;41380;-73
2023/12/06 11:42:04;;;;;;;9.43;5.57;;;;;;;;;;5057518;28;40963;-72
2023/12/06 11:44:32;;;;;;;7.47;5.03;;;;;;;;;;5055943;28;42216;-72
2023/12/06 11:47:00;;;;;;;7.43;5.93;;;;;;;;;;5054368;28;40179;-73
2023/12/06 11:49:28;;;;;;;7.97;5.70;;;;;;;;;;5053781;28;42468;-72
2023/12/06 11:52:00;;;;;;;5.88;4.82;;;;;;;;;;5054238;28;39979;-73
2023/12/06 11:54:28;;;;;;;7.45;5.55;;;;;;;;;;5052427;28;41671;-73
2023/12/06 11:57:05;;;;;;;7.10;5.18;;;;;;;;;;5056022;28;41633;-73
2023/12/06 11:59:33;;;;;;;6.75;5.07;;;;;;;;;;5052245;28;39444;-72
2023/12/06 12:02:01;;;;;;;6.47;5.00;;;;;;;;;;5063122;28;41691;-72
2023/12/06 12:04:30;;;;;;;4.95;4.05;;;;;;;;;;5050436;28;42211;-75
2023/12/06 12:07:00;;;;;;;4.95;4.45;;;;;;;;;;5062398;28;40345;-75
2023/12/06 12:09:29;;;;;;;8.85;5.50;;;;;;;;;;5056281;28;41378;-74
2023/12/06 12:11:58;;;;;;;7.60;5.65;;;;;;;;;;5051624;28;40450;-73
2023/12/06 12:14:32;;;;;;;6.07;5.10;;;;;;;;;;5054917;28;43141;-74
2023/12/06 12:17:00;;;;;;;5.70;4.45;;;;;;;;;;5057494;28;41940;-73
2023/12/06 12:19:28;;;;;;;5.70;4.95;;;;;;;;;;5055535;28;40501;-73
2023/12/06 12:22:04;;;;;;;7.03;5.47;;;;;;;;;;5058155;28;41098;-73
2023/12/06 12:24:34;;;;;;;7.20;5.28;;;;;;;;;;5057678;28;42063;-73
2023/12/06 12:27:04;;;;;;;7.82;5.18;;;;;;;;;;5059343;28;41173;-72
2023/12/06 12:29:32;;;;;;;7.65;5.35;;;;;;;;;;5061128;28;42244;-73
2023/12/06 12:32:00;;;;;;;9.18;6.25;;;;;;;;;;5047135;28;31113;-73
2023/12/06 12:34:28;;;;;;;6.75;5.35;;;;;;;;;;5057659;28;41124;-72
2023/12/06 12:36:56;;;;;;;6.32;5.65;;;;;;;;;;5056888;28;41907;-73
2023/12/06 12:39:25;;;;;;;7.00;5.88;;;;;;;;;;5050428;28;40927;-73
2023/12/06 12:41:53;;;;;;;6.97;5.65;;;;;;;;;;5054835;28;42361;-74
2023/12/06 12:44:21;;;;;;;7.43;5.50;;;;;;;;;;5063245;28;42674;-75
2023/12/06 12:46:49;;;;;;;7.22;4.78;;;;;;;;;;5061643;28;41127;-75
2023/12/06 12:49:26;;;;;;;7.57;5.70;;;;;;;;;;5055283;28;41202;-75
2023/12/06 12:51:54;;;;;;;9.85;6.22;;;;;;;;;;5058163;28;42659;-75
2023/12/06 12:54:22;;;;;;;6.60;5.28;;;;;;;;;;5039574;28;41520;-75
2023/12/06 12:56:51;;;;;;;9.20;5.32;;;;;;;;;;5059805;28;43167;-75
2023/12/06 12:59:19;;;;;;;7.85;5.22;;;;;;;;;;5061539;28;40338;-75
2023/12/06 13:01:47;;;;;;;7.47;5.43;;;;;;;;;;5063130;28;41289;-75
2023/12/06 13:04:15;;;;;;;6.95;5.32;;;;;;;;;;5063640;28;41827;-75
2023/12/06 13:06:43;;;;;;;6.95;5.50;;;;;;;;;;5062550;28;39217;-75
2023/12/06 13:09:15;;;;;;;8.45;5.53;;;;;;;;;;5062522;28;41479;-75
2023/12/06 13:11:44;;;;;;;10.10;5.80;;;;;;;;;;5059157;28;41875;-75
2023/12/06 13:14:15;;;;;;;7.68;4.68;;;;;;;;;;5061486;28;40311;-75
2023/12/06 13:16:43;;;;;;;8.52;5.10;;;;;;;;;;5058133;28;42186;-74
2023/12/06 13:19:11;;;;;;;13.70;5.53;;;;;;;;;;5044374;28;39688;-75
2023/12/06 13:21:39;;;;;;;7.63;5.45;;;;;;;;;;5065179;28;41639;-74
2023/12/06 13:24:08;;;;;;;8.40;5.03;;;;;;;;;;5044098;28;41875;-75
2023/12/06 13:26:39;;;;;;;10.68;5.57;;;;;;;;;;5055887;28;40730;-74
2023/12/06 13:29:07;;;;;;;11.10;5.50;;;;;;;;;;5061462;28;40548;-73
2023/12/06 13:31:37;;;;;;;10.98;5.85;;;;;;;;;;5061305;28;41094;-73
2023/12/06 13:34:06;;;;;;;11.57;5.63;;;;;;;;;;5055363;28;41817;-76
2023/12/06 13:36:35;;;;;;;8.32;5.57;;;;;;;;;;5058157;28;42320;-76
2023/12/06 13:39:05;;;;;;;8.90;5.95;;;;;;;;;;5063953;28;40700;-75
2023/12/06 13:41:33;;;;;;;6.75;5.28;;;;;;;;;;5057933;28;40329;-72
2023/12/06 13:44:02;;;;;;;5.72;4.93;;;;;;;;;;5065432;28;41887;-73
2023/12/06 13:46:29;;;;;;;9.35;5.15;;;;;;;;;;5052369;28;40547;-73
2023/12/06 13:48:59;;;;;;;10.95;5.30;;;;;;;;;;5059126;28;41780;-73
2023/12/06 13:51:27;;;;;;;7.13;5.22;;;;;;;;;;5053068;28;41604;-73
2023/12/06 13:53:55;;;;;;;6.20;4.78;;;;;;;;;;5055981;28;39846;-74
2023/12/06 13:56:23;;;;;;;8.05;5.25;;;;;;;;;;5056990;28;41193;-74
2023/12/06 13:58:51;;;;;;;7.50;5.28;;;;;;;;;;5065636;28;41902;-74
2023/12/06 14:01:19;;;;;;;6.88;4.75;;;;;;;;;;5060411;28;41788;-74
2023/12/06 14:03:47;;;;;;;7.20;4.88;;;;;;;;;;5057231;28;43132;-73
2023/12/06 14:06:17;;;;;;;7.22;4.75;;;;;;;;;;5064433;28;41335;-73
2023/12/06 14:08:45;;;;;;;5.72;4.75;;;;;;;;;;5061398;28;42554;-73
2023/12/06 14:11:13;;;;;;;7.03;4.68;;;;;;;;;;5060265;28;42723;-73
2023/12/06 14:13:41;;;;;;;8.10;4.43;;;;;;;;;;5064516;28;41371;-75
2023/12/06 14:16:09;;;;;;;6.63;5.07;;;;;;;;;;5064971;28;41026;-74
2023/12/06 14:18:37;;;;;;;4.97;4.43;;;;;;;;;;5059645;28;41659;-74
2023/12/06 14:21:05;;;;;;;7.07;4.90;;;;;;;;;;5064552;28;40168;-76
2023/12/06 14:23:34;;;;;;;7.90;5.15;;;;;;;;;;5059660;28;43050;-76
2023/12/06 14:26:03;;;;;;;5.50;4.90;;;;;;;;;;5061510;28;40403;-77
2023/12/06 14:28:30;;;;;;;6.68;4.63;;;;;;;;;;5064817;28;41903;-77
2023/12/06 14:30:59;;;;;;;7.82;4.82;;;;;;;;;;5066253;28;42211;-76
2023/12/06 14:33:27;;;;;;;6.03;4.75;;;;;;;;;;5069379;28;39802;-76
2023/12/06 14:35:56;;;;;;;5.60;4.97;;;;;;;;;;5063135;28;41699;-74
2023/12/06 14:38:24;;;;;;;7.07;4.60;;;;;;;;;;5065390;28;42121;-75
2023/12/06 14:40:53;;;;;;;12.23;5.55;;;;;;;;;;5063482;28;40014;-76
2023/12/06 14:43:23;;;;;;;6.93;4.20;;;;;;;;;;5061154;28;40939;-77